sensor_id;sensor_type;location;lat;lon;timestamp;temperature;humidity
21672;DHT22;10997;52.242;8.168;2023-05-06T00:00:44;10.20;99.90
21672;DHT22;10997;52.242;8.168;2023-05-06T00:05:45;10.20;99.90
21672;DHT22;10997;52.242;8.168;2023-05-06T00:10:46;10.00;99.90
21672;DHT22;10997;52.242;8.168;2023-05-06T00:15:47;9.90;99.90
21672;DHT22;10997;52.242;8.168;2023-05-06T00:20:48;9.80;99.90
21672;DHT22;10997;52.242;8.168;2023-05-06T00:25:48;9.70;99.90
21672;DHT22;10997;52.242;8.168;2023-05-06T00:30:49;9.60;99.90
21672;DHT22;10997;52.242;8.168;2023-05-06T00:35:51;9.60;99.90
21672;DHT22;10997;52.242;8.168;2023-05-06T00:40:52;9.60;99.90
21672;DHT22;10997;52.242;8.168;2023-05-06T00:45:53;9.40;99.90
21672;DHT22;10997;52.242;8.168;2023-05-06T00:50:54;9.30;99.90
21672;DHT22;10997;52.242;8.168;2023-05-06T00:55:55;9.20;99.90
21672;DHT22;10997;52.242;8.168;2023-05-06T01:00:55;9.10;99.90
21672;DHT22;10997;52.242;8.168;2023-05-06T01:06:25;9.10;99.90
21672;DHT22;10997;52.242;8.168;2023-05-06T01:16:34;8.80;99.90
21672;DHT22;10997;52.242;8.168;2023-05-06T01:21:38;8.70;99.90
21672;DHT22;10997;52.242;8.168;2023-05-06T01:26:41;8.50;99.90
21672;DHT22;10997;52.242;8.168;2023-05-06T01:31:47;8.40;99.90
21672;DHT22;10997;52.242;8.168;2023-05-06T01:41:55;8.50;99.90
21672;DHT22;10997;52.242;8.168;2023-05-06T01:46:57;8.50;99.90
21672;DHT22;10997;52.242;8.168;2023-05-06T01:51:58;8.50;99.90
21672;DHT22;10997;52.242;8.168;2023-05-06T01:56:58;8.70;99.90
21672;DHT22;10997;52.242;8.168;2023-05-06T02:01:59;8.40;99.90
21672;DHT22;10997;52.242;8.168;2023-05-06T02:07:00;8.30;99.90
21672;DHT22;10997;52.242;8.168;2023-05-06T02:12:00;8.40;99.90
21672;DHT22;10997;52.242;8.168;2023-05-06T02:17:04;8.50;99.90
21672;DHT22;10997;52.242;8.168;2023-05-06T02:22:05;8.60;99.90
21672;DHT22;10997;52.242;8.168;2023-05-06T02:27:05;8.70;99.90
21672;DHT22;10997;52.242;8.168;2023-05-06T02:32:06;8.70;99.90
21672;DHT22;10997;52.242;8.168;2023-05-06T02:37:07;8.60;99.90
21672;DHT22;10997;52.242;8.168;2023-05-06T02:42:07;8.50;99.90
21672;DHT22;10997;52.242;8.168;2023-05-06T02:47:08;8.50;99.90
21672;DHT22;10997;52.242;8.168;2023-05-06T02:52:08;8.30;99.90
21672;DHT22;10997;52.242;8.168;2023-05-06T02:57:09;8.10;99.90
21672;DHT22;10997;52.242;8.168;2023-05-06T03:02:09;8.20;99.90
21672;DHT22;10997;52.242;8.168;2023-05-06T03:07:11;8.20;99.90
21672;DHT22;10997;52.242;8.168;2023-05-06T03:12:12;8.20;99.90
21672;DHT22;10997;52.242;8.168;2023-05-06T03:17:12;8.20;99.90
21672;DHT22;10997;52.242;8.168;2023-05-06T03:22:13;8.10;99.90
21672;DHT22;10997;52.242;8.168;2023-05-06T03:27:14;8.10;99.90
21672;DHT22;10997;52.242;8.168;2023-05-06T03:32:14;8.00;99.90
21672;DHT22;10997;52.242;8.168;2023-05-06T03:37:15;8.00;99.90
21672;DHT22;10997;52.242;8.168;2023-05-06T03:42:15;8.00;99.90
21672;DHT22;10997;52.242;8.168;2023-05-06T03:47:16;8.00;99.90
21672;DHT22;10997;52.242;8.168;2023-05-06T03:52:17;8.00;99.90
21672;DHT22;10997;52.242;8.168;2023-05-06T03:57:17;8.00;99.90
21672;DHT22;10997;52.242;8.168;2023-05-06T04:02:18;7.90;99.90
21672;DHT22;10997;52.242;8.168;2023-05-06T04:07:19;7.80;99.90
21672;DHT22;10997;52.242;8.168;2023-05-06T04:12:19;7.80;99.90
21672;DHT22;10997;52.242;8.168;2023-05-06T04:17:20;7.80;99.90
21672;DHT22;10997;52.242;8.168;2023-05-06T04:22:20;7.80;99.90
21672;DHT22;10997;52.242;8.168;2023-05-06T04:27:21;7.80;99.90
21672;DHT22;10997;52.242;8.168;2023-05-06T04:32:22;7.80;99.90
21672;DHT22;10997;52.242;8.168;2023-05-06T04:37:24;7.80;99.90
21672;DHT22;10997;52.242;8.168;2023-05-06T04:42:27;7.80;99.90
21672;DHT22;10997;52.242;8.168;2023-05-06T04:47:29;7.90;99.90
21672;DHT22;10997;52.242;8.168;2023-05-06T04:52:29;8.00;99.90
21672;DHT22;10997;52.242;8.168;2023-05-06T04:57:30;8.00;99.90
21672;DHT22;10997;52.242;8.168;2023-05-06T05:02:31;8.10;99.90
21672;DHT22;10997;52.242;8.168;2023-05-06T05:07:32;8.30;99.90
21672;DHT22;10997;52.242;8.168;2023-05-06T05:12:32;8.50;99.90
21672;DHT22;10997;52.242;8.168;2023-05-06T05:17:33;8.50;99.90
21672;DHT22;10997;52.242;8.168;2023-05-06T05:22:33;8.70;99.90
21672;DHT22;10997;52.242;8.168;2023-05-06T05:27:34;8.80;99.90
21672;DHT22;10997;52.242;8.168;2023-05-06T05:32:35;9.00;99.90
21672;DHT22;10997;52.242;8.168;2023-05-06T05:37:36;9.20;99.90
21672;DHT22;10997;52.242;8.168;2023-05-06T05:42:37;9.20;99.90
21672;DHT22;10997;52.242;8.168;2023-05-06T05:47:38;9.40;99.90
21672;DHT22;10997;52.242;8.168;2023-05-06T05:52:38;9.60;99.90
21672;DHT22;10997;52.242;8.168;2023-05-06T05:57:40;9.80;99.90
21672;DHT22;10997;52.242;8.168;2023-05-06T06:02:40;10.10;99.90
21672;DHT22;10997;52.242;8.168;2023-05-06T06:07:41;10.50;99.90
21672;DHT22;10997;52.242;8.168;2023-05-06T06:12:41;10.80;99.90
21672;DHT22;10997;52.242;8.168;2023-05-06T06:17:43;10.80;99.90
21672;DHT22;10997;52.242;8.168;2023-05-06T06:22:44;11.00;99.90
21672;DHT22;10997;52.242;8.168;2023-05-06T06:27:45;11.30;99.90
21672;DHT22;10997;52.242;8.168;2023-05-06T06:32:52;11.70;99.90
21672;DHT22;10997;52.242;8.168;2023-05-06T06:37:53;11.80;99.90
21672;DHT22;10997;52.242;8.168;2023-05-06T06:42:54;12.00;99.90
21672;DHT22;10997;52.242;8.168;2023-05-06T06:47:55;12.20;99.90
21672;DHT22;10997;52.242;8.168;2023-05-06T06:52:55;12.30;99.90
21672;DHT22;10997;52.242;8.168;2023-05-06T06:57:56;12.40;99.90
21672;DHT22;10997;52.242;8.168;2023-05-06T07:02:56;12.60;99.90
21672;DHT22;10997;52.242;8.168;2023-05-06T07:07:57;12.80;99.90
21672;DHT22;10997;52.242;8.168;2023-05-06T07:12:57;13.00;99.90
21672;DHT22;10997;52.242;8.168;2023-05-06T07:17:58;13.30;99.90
21672;DHT22;10997;52.242;8.168;2023-05-06T07:22:59;13.60;99.90
21672;DHT22;10997;52.242;8.168;2023-05-06T07:27:59;13.90;99.90
21672;DHT22;10997;52.242;8.168;2023-05-06T07:33:00;14.30;99.90
21672;DHT22;10997;52.242;8.168;2023-05-06T07:38:00;14.70;99.90
21672;DHT22;10997;52.242;8.168;2023-05-06T07:43:01;14.90;99.90
21672;DHT22;10997;52.242;8.168;2023-05-06T07:48:02;15.10;99.90
21672;DHT22;10997;52.242;8.168;2023-05-06T07:53:02;15.50;99.90
21672;DHT22;10997;52.242;8.168;2023-05-06T07:58:03;15.60;99.90
21672;DHT22;10997;52.242;8.168;2023-05-06T08:03:03;15.40;99.90
21672;DHT22;10997;52.242;8.168;2023-05-06T08:08:04;15.10;99.90
21672;DHT22;10997;52.242;8.168;2023-05-06T08:13:05;15.20;99.90
21672;DHT22;10997;52.242;8.168;2023-05-06T08:18:05;15.30;99.90
21672;DHT22;10997;52.242;8.168;2023-05-06T08:23:06;15.60;99.90
21672;DHT22;10997;52.242;8.168;2023-05-06T08:28:06;16.00;99.90
21672;DHT22;10997;52.242;8.168;2023-05-06T08:33:07;16.10;99.90
21672;DHT22;10997;52.242;8.168;2023-05-06T08:38:08;16.10;99.90
21672;DHT22;10997;52.242;8.168;2023-05-06T08:43:12;16.30;99.90
21672;DHT22;10997;52.242;8.168;2023-05-06T08:48:13;16.50;99.90
21672;DHT22;10997;52.242;8.168;2023-05-06T08:53:14;16.60;99.90
21672;DHT22;10997;52.242;8.168;2023-05-06T08:58:16;16.80;99.90
21672;DHT22;10997;52.242;8.168;2023-05-06T09:03:18;17.00;99.90
21672;DHT22;10997;52.242;8.168;2023-05-06T09:08:18;17.20;99.90
21672;DHT22;10997;52.242;8.168;2023-05-06T09:13:19;17.10;99.90
21672;DHT22;10997;52.242;8.168;2023-05-06T09:18:20;16.80;99.90
21672;DHT22;10997;52.242;8.168;2023-05-06T09:23:21;16.80;99.90
21672;DHT22;10997;52.242;8.168;2023-05-06T09:28:22;16.90;99.90
21672;DHT22;10997;52.242;8.168;2023-05-06T09:33:22;16.80;99.90
21672;DHT22;10997;52.242;8.168;2023-05-06T09:38:23;17.00;99.90
21672;DHT22;10997;52.242;8.168;2023-05-06T09:43:24;17.40;99.90
21672;DHT22;10997;52.242;8.168;2023-05-06T09:48:28;17.60;99.90
21672;DHT22;10997;52.242;8.168;2023-05-06T09:53:30;17.60;99.90
21672;DHT22;10997;52.242;8.168;2023-05-06T09:58:33;17.90;99.90
21672;DHT22;10997;52.242;8.168;2023-05-06T10:03:34;18.30;99.90
21672;DHT22;10997;52.242;8.168;2023-05-06T10:08:35;19.00;99.90
21672;DHT22;10997;52.242;8.168;2023-05-06T10:13:37;19.40;99.90
21672;DHT22;10997;52.242;8.168;2023-05-06T10:18:40;19.20;99.90
21672;DHT22;10997;52.242;8.168;2023-05-06T10:23:43;19.20;99.90
21672;DHT22;10997;52.242;8.168;2023-05-06T10:28:52;19.50;99.90
21672;DHT22;10997;52.242;8.168;2023-05-06T10:33:53;19.50;99.90
21672;DHT22;10997;52.242;8.168;2023-05-06T10:38:57;19.20;99.90
21672;DHT22;10997;52.242;8.168;2023-05-06T10:43:59;18.90;99.90
21672;DHT22;10997;52.242;8.168;2023-05-06T10:54:08;19.30;99.90
21672;DHT22;10997;52.242;8.168;2023-05-06T10:59:10;19.40;99.90
21672;DHT22;10997;52.242;8.168;2023-05-06T11:04:12;19.10;99.90
21672;DHT22;10997;52.242;8.168;2023-05-06T11:09:17;19.30;99.90
21672;DHT22;10997;52.242;8.168;2023-05-06T11:14:31;19.10;99.90
21672;DHT22;10997;52.242;8.168;2023-05-06T11:19:37;19.30;99.90
21672;DHT22;10997;52.242;8.168;2023-05-06T11:24:40;19.80;99.90
21672;DHT22;10997;52.242;8.168;2023-05-06T11:29:42;20.10;99.90
21672;DHT22;10997;52.242;8.168;2023-05-06T11:34:42;20.20;99.90
21672;DHT22;10997;52.242;8.168;2023-05-06T11:39:48;19.70;99.90
21672;DHT22;10997;52.242;8.168;2023-05-06T11:44:49;19.80;99.90
21672;DHT22;10997;52.242;8.168;2023-05-06T11:49:53;20.10;99.90
21672;DHT22;10997;52.242;8.168;2023-05-06T11:54:54;20.70;99.90
21672;DHT22;10997;52.242;8.168;2023-05-06T11:59:55;20.50;99.90
21672;DHT22;10997;52.242;8.168;2023-05-06T12:04:55;20.20;99.90
21672;DHT22;10997;52.242;8.168;2023-05-06T12:09:57;19.90;99.90
21672;DHT22;10997;52.242;8.168;2023-05-06T12:14:58;19.80;99.90
21672;DHT22;10997;52.242;8.168;2023-05-06T12:19:59;20.30;99.90
21672;DHT22;10997;52.242;8.168;2023-05-06T12:25:14;20.20;99.90
21672;DHT22;10997;52.242;8.168;2023-05-06T12:30:20;20.60;99.90
21672;DHT22;10997;52.242;8.168;2023-05-06T12:35:29;20.90;99.90
21672;DHT22;10997;52.242;8.168;2023-05-06T12:40:29;20.90;99.90
21672;DHT22;10997;52.242;8.168;2023-05-06T12:45:30;20.60;99.90
21672;DHT22;10997;52.242;8.168;2023-05-06T12:50:38;20.70;99.90
21672;DHT22;10997;52.242;8.168;2023-05-06T12:55:40;21.10;99.90
21672;DHT22;10997;52.242;8.168;2023-05-06T13:00:44;21.00;99.90
21672;DHT22;10997;52.242;8.168;2023-05-06T13:05:45;21.20;99.90
21672;DHT22;10997;52.242;8.168;2023-05-06T13:10:49;22.00;99.90
21672;DHT22;10997;52.242;8.168;2023-05-06T13:15:51;22.00;99.90
21672;DHT22;10997;52.242;8.168;2023-05-06T13:20:52;21.80;99.90
21672;DHT22;10997;52.242;8.168;2023-05-06T13:25:53;22.10;99.90
21672;DHT22;10997;52.242;8.168;2023-05-06T13:30:53;22.40;99.90
21672;DHT22;10997;52.242;8.168;2023-05-06T13:35:54;22.80;99.90
21672;DHT22;10997;52.242;8.168;2023-05-06T13:40:54;22.80;99.90
21672;DHT22;10997;52.242;8.168;2023-05-06T13:45:55;22.70;99.90
21672;DHT22;10997;52.242;8.168;2023-05-06T13:50:55;23.00;99.90
21672;DHT22;10997;52.242;8.168;2023-05-06T13:55:56;22.90;99.90
21672;DHT22;10997;52.242;8.168;2023-05-06T14:00:57;22.50;99.90
21672;DHT22;10997;52.242;8.168;2023-05-06T14:05:57;22.50;99.90
21672;DHT22;10997;52.242;8.168;2023-05-06T14:10:58;22.50;99.90
21672;DHT22;10997;52.242;8.168;2023-05-06T14:15:59;22.10;99.90
21672;DHT22;10997;52.242;8.168;2023-05-06T14:20:59;21.80;99.90
21672;DHT22;10997;52.242;8.168;2023-05-06T14:26:00;21.90;99.90
21672;DHT22;10997;52.242;8.168;2023-05-06T14:31:01;22.30;99.90
21672;DHT22;10997;52.242;8.168;2023-05-06T14:36:01;22.70;99.90
21672;DHT22;10997;52.242;8.168;2023-05-06T14:41:02;22.90;99.90
21672;DHT22;10997;52.242;8.168;2023-05-06T14:46:03;22.50;99.90
21672;DHT22;10997;52.242;8.168;2023-05-06T14:51:03;22.40;99.90
21672;DHT22;10997;52.242;8.168;2023-05-06T14:56:08;22.60;99.90
21672;DHT22;10997;52.242;8.168;2023-05-06T15:01:08;22.80;99.90
21672;DHT22;10997;52.242;8.168;2023-05-06T15:06:09;23.00;99.90
21672;DHT22;10997;52.242;8.168;2023-05-06T15:11:11;23.50;99.90
21672;DHT22;10997;52.242;8.168;2023-05-06T15:16:11;23.90;99.90
21672;DHT22;10997;52.242;8.168;2023-05-06T15:21:12;24.00;99.90
21672;DHT22;10997;52.242;8.168;2023-05-06T15:26:14;23.70;99.90
21672;DHT22;10997;52.242;8.168;2023-05-06T15:31:14;23.60;99.90
21672;DHT22;10997;52.242;8.168;2023-05-06T15:36:15;23.30;99.20
21672;DHT22;10997;52.242;8.168;2023-05-06T15:41:16;23.10;99.70
21672;DHT22;10997;52.242;8.168;2023-05-06T15:46:16;23.20;99.70
21672;DHT22;10997;52.242;8.168;2023-05-06T15:51:17;23.00;99.00
21672;DHT22;10997;52.242;8.168;2023-05-06T15:56:18;23.20;99.70
21672;DHT22;10997;52.242;8.168;2023-05-06T16:01:18;22.90;99.90
21672;DHT22;10997;52.242;8.168;2023-05-06T16:06:19;22.80;99.90
21672;DHT22;10997;52.242;8.168;2023-05-06T16:11:20;23.00;99.90
21672;DHT22;10997;52.242;8.168;2023-05-06T16:16:20;22.60;99.80
21672;DHT22;10997;52.242;8.168;2023-05-06T16:21:21;22.50;99.90
21672;DHT22;10997;52.242;8.168;2023-05-06T16:26:22;22.10;99.90
21672;DHT22;10997;52.242;8.168;2023-05-06T16:31:23;21.80;99.90
21672;DHT22;10997;52.242;8.168;2023-05-06T16:36:25;21.60;99.90
21672;DHT22;10997;52.242;8.168;2023-05-06T16:41:26;21.60;99.90
21672;DHT22;10997;52.242;8.168;2023-05-06T16:46:27;21.70;99.90
21672;DHT22;10997;52.242;8.168;2023-05-06T16:51:28;21.60;99.90
21672;DHT22;10997;52.242;8.168;2023-05-06T16:56:28;21.40;99.90
21672;DHT22;10997;52.242;8.168;2023-05-06T17:01:29;21.40;99.90
21672;DHT22;10997;52.242;8.168;2023-05-06T17:06:30;21.40;99.90
21672;DHT22;10997;52.242;8.168;2023-05-06T17:11:31;21.30;99.90
21672;DHT22;10997;52.242;8.168;2023-05-06T17:16:31;21.30;99.90
21672;DHT22;10997;52.242;8.168;2023-05-06T17:21:32;21.30;99.90
21672;DHT22;10997;52.242;8.168;2023-05-06T17:26:33;21.00;99.90
21672;DHT22;10997;52.242;8.168;2023-05-06T17:31:34;20.70;99.90
21672;DHT22;10997;52.242;8.168;2023-05-06T17:36:34;20.40;99.90
21672;DHT22;10997;52.242;8.168;2023-05-06T17:41:35;20.20;99.90
21672;DHT22;10997;52.242;8.168;2023-05-06T17:46:36;19.90;99.90
21672;DHT22;10997;52.242;8.168;2023-05-06T17:51:36;19.90;99.90
21672;DHT22;10997;52.242;8.168;2023-05-06T17:56:37;19.80;99.90
21672;DHT22;10997;52.242;8.168;2023-05-06T18:01:37;19.70;99.90
21672;DHT22;10997;52.242;8.168;2023-05-06T18:06:42;19.60;99.90
21672;DHT22;10997;52.242;8.168;2023-05-06T18:11:43;19.50;99.90
21672;DHT22;10997;52.242;8.168;2023-05-06T18:16:44;19.20;99.90
21672;DHT22;10997;52.242;8.168;2023-05-06T18:21:45;19.00;99.90
21672;DHT22;10997;52.242;8.168;2023-05-06T18:26:45;18.80;99.90
21672;DHT22;10997;52.242;8.168;2023-05-06T18:31:46;18.50;99.90
21672;DHT22;10997;52.242;8.168;2023-05-06T18:36:46;18.40;99.90
21672;DHT22;10997;52.242;8.168;2023-05-06T18:41:47;18.20;99.90
21672;DHT22;10997;52.242;8.168;2023-05-06T18:46:47;17.90;99.90
21672;DHT22;10997;52.242;8.168;2023-05-06T18:51:48;17.70;99.90
21672;DHT22;10997;52.242;8.168;2023-05-06T18:56:49;17.50;99.90
21672;DHT22;10997;52.242;8.168;2023-05-06T19:01:53;17.30;99.90
21672;DHT22;10997;52.242;8.168;2023-05-06T19:06:54;17.10;99.90
21672;DHT22;10997;52.242;8.168;2023-05-06T19:11:55;16.90;99.90
21672;DHT22;10997;52.242;8.168;2023-05-06T19:16:55;16.80;99.90
21672;DHT22;10997;52.242;8.168;2023-05-06T19:21:56;16.60;99.90
21672;DHT22;10997;52.242;8.168;2023-05-06T19:26:58;16.50;99.90
21672;DHT22;10997;52.242;8.168;2023-05-06T19:31:59;16.40;99.90
21672;DHT22;10997;52.242;8.168;2023-05-06T19:37:01;16.30;99.90
21672;DHT22;10997;52.242;8.168;2023-05-06T19:42:02;16.20;99.90
21672;DHT22;10997;52.242;8.168;2023-05-06T19:47:02;16.10;99.90
21672;DHT22;10997;52.242;8.168;2023-05-06T19:52:03;16.00;99.90
21672;DHT22;10997;52.242;8.168;2023-05-06T19:57:04;15.90;99.90
21672;DHT22;10997;52.242;8.168;2023-05-06T20:02:05;15.80;99.90
21672;DHT22;10997;52.242;8.168;2023-05-06T20:07:05;15.70;99.90
21672;DHT22;10997;52.242;8.168;2023-05-06T20:12:06;15.70;99.90
21672;DHT22;10997;52.242;8.168;2023-05-06T20:17:07;15.60;99.90
21672;DHT22;10997;52.242;8.168;2023-05-06T20:22:07;15.60;99.90
21672;DHT22;10997;52.242;8.168;2023-05-06T20:27:08;15.50;99.90
21672;DHT22;10997;52.242;8.168;2023-05-06T20:32:09;15.40;99.90
21672;DHT22;10997;52.242;8.168;2023-05-06T20:37:10;15.40;99.90
21672;DHT22;10997;52.242;8.168;2023-05-06T20:42:11;15.40;99.90
21672;DHT22;10997;52.242;8.168;2023-05-06T20:47:13;15.40;99.90
21672;DHT22;10997;52.242;8.168;2023-05-06T20:52:13;15.30;99.90
21672;DHT22;10997;52.242;8.168;2023-05-06T20:57:14;15.30;99.90
21672;DHT22;10997;52.242;8.168;2023-05-06T21:02:15;15.20;99.90
21672;DHT22;10997;52.242;8.168;2023-05-06T21:07:16;15.20;99.90
21672;DHT22;10997;52.242;8.168;2023-05-06T21:12:17;15.20;99.90
21672;DHT22;10997;52.242;8.168;2023-05-06T21:17:17;15.10;99.90
21672;DHT22;10997;52.242;8.168;2023-05-06T21:22:24;15.10;99.90
21672;DHT22;10997;52.242;8.168;2023-05-06T21:27:25;15.10;99.90
21672;DHT22;10997;52.242;8.168;2023-05-06T21:32:25;15.00;99.90
21672;DHT22;10997;52.242;8.168;2023-05-06T21:37:27;14.90;99.90
21672;DHT22;10997;52.242;8.168;2023-05-06T21:42:27;14.90;99.90
21672;DHT22;10997;52.242;8.168;2023-05-06T21:47:28;14.90;99.90
21672;DHT22;10997;52.242;8.168;2023-05-06T21:52:29;14.80;99.90
21672;DHT22;10997;52.242;8.168;2023-05-06T21:57:30;14.80;99.90
21672;DHT22;10997;52.242;8.168;2023-05-06T22:02:31;14.60;99.90
21672;DHT22;10997;52.242;8.168;2023-05-06T22:07:32;14.60;99.90
21672;DHT22;10997;52.242;8.168;2023-05-06T22:12:34;14.60;99.90
21672;DHT22;10997;52.242;8.168;2023-05-06T22:17:35;14.60;99.90
21672;DHT22;10997;52.242;8.168;2023-05-06T22:22:37;14.50;99.90
21672;DHT22;10997;52.242;8.168;2023-05-06T22:27:38;14.40;99.90
21672;DHT22;10997;52.242;8.168;2023-05-06T22:32:38;14.30;99.90
21672;DHT22;10997;52.242;8.168;2023-05-06T22:37:39;14.30;99.90
21672;DHT22;10997;52.242;8.168;2023-05-06T22:42:39;14.30;99.90
21672;DHT22;10997;52.242;8.168;2023-05-06T22:47:40;14.20;99.90
21672;DHT22;10997;52.242;8.168;2023-05-06T22:52:40;14.10;99.90
21672;DHT22;10997;52.242;8.168;2023-05-06T22:57:41;14.10;99.90
21672;DHT22;10997;52.242;8.168;2023-05-06T23:02:42;14.00;99.90
21672;DHT22;10997;52.242;8.168;2023-05-06T23:07:46;13.90;99.90
21672;DHT22;10997;52.242;8.168;2023-05-06T23:12:46;13.70;99.90
21672;DHT22;10997;52.242;8.168;2023-05-06T23:17:47;13.70;99.90
21672;DHT22;10997;52.242;8.168;2023-05-06T23:22:47;13.60;99.90
21672;DHT22;10997;52.242;8.168;2023-05-06T23:27:48;13.60;99.90
21672;DHT22;10997;52.242;8.168;2023-05-06T23:32:48;13.50;99.90
21672;DHT22;10997;52.242;8.168;2023-05-06T23:37:49;13.40;99.90
21672;DHT22;10997;52.242;8.168;2023-05-06T23:42:50;13.40;99.90
21672;DHT22;10997;52.242;8.168;2023-05-06T23:47:51;13.30;99.90
21672;DHT22;10997;52.242;8.168;2023-05-06T23:52:51;13.30;99.90
21672;DHT22;10997;52.242;8.168;2023-05-06T23:57:52;13.30;99.90
